Time;durP1;ratioP1;P1;durP2;ratioP2;P2;SDS_P1;SDS_P2;PMS_P1;PMS_P2;Temp;Humidity;BMP_temperature;BMP_pressure;BME280_temperature;BME280_humidity;BME280_pressure;Samples;Min_cycle;Max_cycle;Signal;HPM_P1;HPM_P2
2022/04/30 00:03:56;;;;;;;64.63;60.23;;;;;;;5.88;100.00;103205.77;1970509;71;86406;-73
2022/04/30 00:09:42;;;;;;;65.20;60.60;;;;;;;5.70;100.00;103201.19;1871912;74;86656;-69
2022/04/30 00:15:26;;;;;;;65.17;60.53;;;;;;;5.67;100.00;103205.20;1905541;74;85080;-75
2022/04/30 00:21:11;;;;;;;65.23;60.70;;;;;;;5.65;100.00;103208.66;1978045;71;39544;-75
2022/04/30 00:26:56;;;;;;;64.50;59.87;;;;;;;5.69;100.00;103203.64;1861791;76;85458;-73
2022/04/30 00:32:40;;;;;;;66.73;62.07;;;;;;;5.82;100.00;103204.61;1867389;75;86677;-73
2022/04/30 00:38:25;;;;;;;64.40;59.90;;;;;;;5.84;100.00;103199.77;1912529;74;85435;-68
2022/04/30 00:44:09;;;;;;;65.50;60.97;;;;;;;5.62;100.00;103204.07;1986784;71;39825;-68
2022/04/30 00:49:53;;;;;;;64.43;59.73;;;;;;;5.59;100.00;103204.47;1826449;76;86341;-74
2022/04/30 00:55:40;;;;;;;62.37;58.07;;;;;;;5.44;100.00;103194.84;1913664;74;86500;-68
2022/04/30 01:01:25;;;;;;;65.90;61.37;;;;;;;5.56;100.00;103192.46;1917149;74;86553;-68
2022/04/30 01:07:19;;;;;;;66.03;61.43;;;;;;;5.64;100.00;103186.82;1979948;71;39506;-73
2022/04/30 01:13:04;;;;;;;64.30;59.93;;;;;;;5.26;100.00;103193.06;1809964;78;85459;-74
2022/04/30 01:18:49;;;;;;;63.80;59.30;;;;;;;5.23;100.00;103190.15;1795798;78;86323;-74
2022/04/30 01:24:36;;;;;;;64.63;59.87;;;;;;;5.42;100.00;103182.66;1805850;78;86249;-68
2022/04/30 01:30:22;;;;;;;66.50;62.07;;;;;;;5.15;100.00;103183.89;1913475;72;86309;-68
2022/04/30 01:42:14;;;;;;;63.07;58.53;;;;;;;5.01;100.00;103171.32;1984337;71;39761;-74
2022/04/30 01:48:00;;;;;;;66.23;61.50;;;;;;;5.00;100.00;103174.29;1827667;76;86131;-73
2022/04/30 01:53:44;;;;;;;63.37;58.87;;;;;;;4.74;100.00;103172.55;1871930;75;85617;-73
2022/04/30 01:59:28;;;;;;;64.47;59.77;;;;;;;4.74;100.00;103168.41;1798966;77;85531;-68
2022/04/30 02:05:14;;;;;;;64.47;59.57;;;;;;;4.71;100.00;103164.12;1986348;71;39578;-68
2022/04/30 02:11:02;;;;;;;63.70;59.00;;;;;;;4.52;100.00;103164.70;1841829;76;86381;-73
2022/04/30 02:16:48;;;;;;;64.03;59.33;;;;;;;4.61;100.00;103156.69;1795635;78;86368;-74
2022/04/30 02:22:39;;;;;;;60.87;56.47;;;;;;;4.79;100.00;103150.25;1849987;76;85648;-68
2022/04/30 02:28:20;;;;;;;63.13;58.50;;;;;;;4.61;100.00;103154.45;1913970;74;86700;-68
2022/04/30 02:34:04;;;;;;;63.20;58.40;;;;;;;4.75;100.00;103154.44;1803170;78;86624;-68
2022/04/30 02:39:49;;;;;;;59.43;55.07;;;;;;;4.59;100.00;103147.23;1810633;78;86159;-68
2022/04/30 02:45:33;;;;;;;62.07;57.57;;;;;;;4.42;100.00;103140.20;1862409;75;86455;-68
2022/04/30 02:51:17;;;;;;;62.43;57.83;;;;;;;4.36;100.00;103135.47;1985516;71;39600;-74
2022/04/30 02:57:02;;;;;;;62.37;57.77;;;;;;;4.37;100.00;103129.41;1784994;78;86222;-69
2022/04/30 03:02:45;;;;;;;62.20;57.63;;;;;;;4.85;100.00;103136.25;1869722;74;85427;-68
2022/04/30 03:08:29;;;;;;;61.60;56.93;;;;;;;4.87;100.00;103142.44;1798929;77;86564;-74
2022/04/30 03:14:13;;;;;;;62.77;58.33;;;;;;;4.67;100.00;103148.17;1959320;71;39629;-74
2022/04/30 03:26:01;;;;;;;61.83;57.33;;;;;;;4.39;100.00;103141.11;1835132;76;85802;-68
2022/04/30 03:31:45;;;;;;;62.53;58.13;;;;;;;4.39;100.00;103148.84;1915305;73;86700;-69
2022/04/30 03:37:30;;;;;;;61.80;57.30;;;;;;;4.62;100.00;103146.53;1810481;77;85403;-68
2022/04/30 03:43:18;;;;;;;61.47;56.93;;;;;;;4.65;100.00;103148.38;1985635;71;39668;-74
2022/04/30 03:49:03;;;;;;;61.63;56.90;;;;;;;4.56;100.00;103143.49;1833151;76;86651;-68
2022/04/30 03:54:47;;;;;;;60.83;55.80;;;;;;;4.68;100.00;103137.50;1801503;78;85467;-74
2022/04/30 04:00:30;;;;;;;59.90;55.37;;;;;;;4.43;100.00;103137.79;1801994;76;86197;-68
2022/04/30 04:06:15;;;;;;;59.73;55.23;;;;;;;4.47;100.00;103141.02;1980895;71;39774;-67
2022/04/30 04:11:59;;;;;;;58.93;54.13;;;;;;;4.45;100.00;103141.73;1892093;74;85548;-74
2022/04/30 04:17:43;;;;;;;59.83;55.00;;;;;;;4.41;100.00;103139.86;1885655;74;86417;-68
2022/04/30 04:25:58;;;;;;;56.23;51.63;;;;;;;4.38;100.00;103134.75;1863272;75;86383;-73
2022/04/30 04:29:18;;;;;;;57.43;53.00;;;;;;;4.01;100.00;103138.40;1984540;71;40143;-68
2022/04/30 04:35:03;;;;;;;59.00;54.30;;;;;;;3.76;100.00;103139.66;1984766;70;86165;-74
2022/04/30 04:40:49;;;;;;;57.93;53.37;;;;;;;3.64;100.00;103143.84;1795449;78;86680;-73
2022/04/30 04:46:37;;;;;;;57.93;53.53;;;;;;;3.63;100.00;103143.53;1885208;75;86559;-68
2022/04/30 04:52:22;;;;;;;58.50;53.90;;;;;;;3.77;100.00;103145.98;1912445;72;86499;-72
2022/04/30 04:58:05;;;;;;;61.00;55.97;;;;;;;3.89;100.00;103144.53;1894964;74;86367;-75
2022/04/30 05:03:49;;;;;;;64.53;59.63;;;;;;;3.95;100.00;103138.27;1809363;78;86102;-68
2022/04/30 05:09:32;;;;;;;61.90;57.17;;;;;;;4.12;100.00;103148.08;1867028;75;86618;-73
2022/04/30 05:15:16;;;;;;;58.57;53.97;;;;;;;4.26;100.00;103152.77;1982376;71;40353;-68
2022/04/30 05:21:01;;;;;;;62.47;57.47;;;;;;;4.15;100.00;103149.63;1823412;75;86688;-68
2022/04/30 05:26:47;;;;;;;62.47;57.37;;;;;;;4.22;100.00;103156.93;1807531;78;86182;-74
2022/04/30 05:32:31;;;;;;;61.23;56.33;;;;;;;4.35;100.00;103148.03;1866762;75;86932;-74
2022/04/30 05:38:16;;;;;;;63.60;58.73;;;;;;;4.49;100.00;103156.28;1985131;71;39977;-68
2022/04/30 05:44:02;;;;;;;60.50;55.37;;;;;;;4.61;100.00;103161.34;1826036;76;86538;-74
2022/04/30 05:49:46;;;;;;;66.20;60.90;;;;;;;5.21;100.00;103163.84;1830726;76;86283;-69
2022/04/30 05:55:31;;;;;;;64.23;59.23;;;;;;;5.26;100.00;103155.31;1891724;73;86268;-68
2022/04/30 06:01:14;;;;;;;66.00;61.00;;;;;;;5.48;100.00;103152.92;1983712;71;39710;-74
2022/04/30 06:06:58;;;;;;;64.47;59.60;;;;;;;5.85;100.00;103144.94;1842438;76;85909;-69
2022/04/30 06:12:43;;;;;;;67.37;62.27;;;;;;;5.52;100.00;103149.24;1885095;74;85380;-67
2022/04/30 06:18:27;;;;;;;67.50;62.40;;;;;;;5.88;100.00;103147.84;1875213;75;86319;-68
2022/04/30 06:24:12;;;;;;;68.90;63.77;;;;;;;6.01;100.00;103153.48;1987738;71;39612;-67
2022/04/30 06:29:56;;;;;;;69.97;64.77;;;;;;;6.46;100.00;103149.36;1870450;75;86462;-66
2022/04/30 06:35:44;;;;;;;71.57;66.47;;;;;;;6.48;100.00;103148.65;1882109;73;85438;-72
2022/04/30 06:41:29;;;;;;;70.17;65.17;;;;;;;6.60;100.00;103151.17;1809764;77;86373;-66
2022/04/30 06:47:13;;;;;;;67.20;62.20;;;;;;;6.46;100.00;103144.40;1980873;71;39733;-67
2022/04/30 06:59:00;;;;;;;73.43;67.73;;;;;;;6.98;100.00;103136.39;1848668;76;85574;-73
2022/04/30 07:04:47;;;;;;;71.13;65.50;;;;;;;7.20;100.00;103131.59;1873135;74;86390;-68
2022/04/30 07:10:31;;;;;;;68.37;63.37;;;;;;;7.72;100.00;103130.34;1864189;75;86521;-72
2022/04/30 07:16:16;;;;;;;67.50;62.80;;;;;;;8.08;100.00;103129.10;1985033;71;39661;-69
2022/04/30 07:21:52;;;;;;;70.93;65.83;;;;;;;8.35;100.00;103128.03;1832692;76;86282;-76
2022/04/30 07:27:39;;;;;;;70.47;65.43;;;;;;;8.29;100.00;103133.56;1868526;75;85627;-73
2022/04/30 07:33:27;;;;;;;61.40;57.50;;;;;;;8.76;100.00;103125.51;1853513;75;86282;-74
2022/04/30 07:39:11;;;;;;;63.57;59.50;;;;;;;8.98;100.00;103125.55;1986652;70;39715;-74
2022/04/30 07:44:59;;;;;;;58.97;55.47;;;;;;;9.23;100.00;103129.27;1845986;76;85486;-75
2022/04/30 07:50:44;;;;;;;55.73;52.27;;;;;;;9.51;100.00;103118.64;1875797;73;85578;-74
2022/04/30 07:56:34;;;;;;;53.70;50.60;;;;;;;10.02;100.00;103119.02;1899828;74;86043;-70
2022/04/30 08:02:17;;;;;;;52.20;49.20;;;;;;;10.34;100.00;103111.51;1977924;71;39742;-74
2022/04/30 08:08:01;;;;;;;51.93;48.93;;;;;;;10.50;100.00;103097.02;1822329;76;85637;-74
2022/04/30 08:13:45;;;;;;;48.40;45.60;;;;;;;11.01;100.00;103093.84;1868359;75;86265;-69
2022/04/30 08:19:31;;;;;;;47.33;44.90;;;;;;;11.31;100.00;103100.28;1808088;77;85506;-70
2022/04/30 08:25:19;;;;;;;46.23;43.70;;;;;;;11.67;100.00;103103.52;1982575;71;39547;-69
2022/04/30 08:31:03;;;;;;;46.80;44.00;;;;;;;11.08;100.00;103100.73;1954317;72;85453;-70
2022/04/30 08:36:48;;;;;;;49.57;46.87;;;;;;;11.48;100.00;103106.58;1809004;78;85649;-75
2022/04/30 08:42:32;;;;;;;39.93;37.67;;;;;;;12.52;100.00;103105.94;1868516;76;86254;-69
2022/04/30 08:48:19;;;;;;;43.23;40.73;;;;;;;11.53;100.00;103101.16;1949257;73;86275;-70
2022/04/30 08:54:04;;;;;;;39.73;37.40;;;;;;;11.93;100.00;103104.20;1802230;78;86148;-70
2022/04/30 08:59:47;;;;;;;29.50;27.57;;;;;;;12.54;100.00;103096.22;1808023;78;86611;-73
2022/04/30 09:05:34;;;;;;;31.00;28.73;;;;;;;11.78;100.00;103091.58;1806303;77;86239;-74
2022/04/30 09:11:29;;;;;;;27.20;25.60;;;;;;;12.44;100.00;103086.25;1916808;74;86333;-74
2022/04/30 09:17:15;;;;;;;25.30;23.67;;;;;;;12.43;100.00;103092.91;1953425;71;39776;-71
2022/04/30 09:23:07;;;;;;;25.67;23.87;;;;;;;13.24;100.00;103082.14;1810844;78;86998;-70
2022/04/30 09:28:53;;;;;;;24.60;22.90;;;;;;;13.12;100.00;103079.41;1881662;74;85972;-73
2022/04/30 09:40:55;;;;;;;23.63;22.03;;;;;;;13.49;100.00;103068.67;1827814;77;86282;-74
2022/04/30 09:46:45;;;;;;;24.10;22.40;;;;;;;13.23;100.00;103062.30;1879755;73;85978;-74
2022/04/30 09:58:31;;;;;;;25.70;23.00;;;;;;;13.42;100.00;103050.39;1801026;77;86035;-69
2022/04/30 10:04:17;;;;;;;19.63;18.40;;;;;;;14.26;100.00;103039.52;1985182;71;39592;-70
2022/04/30 10:10:08;;;;;;;21.50;19.90;;;;;;;13.96;100.00;103034.84;1818972;76;86493;-75
2022/04/30 10:12:41;;;;;;;20.90;19.47;;;;;;;14.02;100.00;103032.44;1811719;77;938844;-69
2022/04/30 10:15:18;;;;;;;21.70;20.02;;;;;;;13.37;100.00;103041.37;1784802;76;940995;-75
2022/04/30 10:21:06;;;;;;;19.23;17.83;;;;;;;14.08;100.00;103028.05;1836736;76;86491;-75
2022/04/30 10:27:02;;;;;;;19.43;18.03;;;;;;;14.13;100.00;103020.30;1837724;75;85801;-69
2022/04/30 10:36:09;;;;;;;18.17;16.87;;;;;;;14.71;100.00;103002.98;1989423;69;39755;-74
2022/04/30 10:38:40;;;;;;;19.00;17.57;;;;;;;14.50;100.00;103009.42;1929555;73;936758;-75
2022/04/30 10:41:11;;;;;;;18.10;16.90;;;;;;;13.79;100.00;103012.50;1909545;73;940753;-70
2022/04/30 10:43:42;;;;;;;18.40;17.13;;;;;;;14.05;100.00;103004.83;1853260;74;938927;-70
2022/04/30 10:46:23;;;;;;;17.43;16.23;;;;;;;14.42;100.00;103003.70;1908138;73;940913;-75
2022/04/30 10:48:53;;;;;;;17.27;16.07;;;;;;;14.44;100.00;102994.52;1890371;74;939013;-74
2022/04/30 10:51:38;;;;;;;17.60;16.40;;;;;;;14.56;100.00;102996.63;1909579;73;939913;-68
2022/04/30 10:54:18;;;;;;;18.20;16.70;;;;;;;14.27;100.00;102992.29;1880872;74;940744;-69
2022/04/30 11:00:03;;;;;;;17.47;16.07;;;;;;;14.48;100.00;102982.25;1836740;76;86366;-69
2022/04/30 11:05:51;;;;;;;16.47;15.37;;;;;;;14.54;100.00;102979.28;1795512;79;86396;-74
2022/04/30 11:11:37;;;;;;;15.83;14.80;;;;;;;14.48;100.00;102959.33;1895596;74;86288;-69
2022/04/30 11:17:22;;;;;;;16.57;15.47;;;;;;;14.95;100.00;102950.36;1868943;76;86308;-69
2022/04/30 11:23:07;;;;;;;16.73;15.63;;;;;;;15.13;100.00;102943.55;1935826;71;39559;-69
2022/04/30 11:28:53;;;;;;;16.53;15.33;;;;;;;14.93;100.00;102933.01;1877408;75;86706;-74
2022/04/30 11:34:37;;;;;;;16.87;15.70;;;;;;;14.83;100.00;102933.73;1872396;75;85209;-69
2022/04/30 11:40:22;;;;;;;15.90;14.80;;;;;;;15.53;100.00;102927.71;1916097;73;85450;-74
2022/04/30 11:46:16;;;;;;;16.30;15.10;;;;;;;14.92;100.00;102928.52;1949404;71;39678;-69
2022/04/30 11:52:02;;;;;;;16.60;15.50;;;;;;;15.20;100.00;102915.63;1844825;76;86734;-70
2022/04/30 11:57:45;;;;;;;17.63;16.23;;;;;;;15.30;100.00;102903.12;1884658;74;85455;-74
2022/04/30 12:03:31;;;;;;;18.17;16.97;;;;;;;15.36;100.00;102904.83;1873139;75;86536;-74
2022/04/30 12:09:18;;;;;;;17.03;15.83;;;;;;;15.96;100.00;102888.19;1985128;71;39587;-74
2022/04/30 12:15:03;;;;;;;15.60;14.60;;;;;;;15.20;100.00;102882.58;1955690;72;85540;-73
2022/04/30 12:27:13;;;;;;;15.77;14.77;;;;;;;15.57;100.00;102863.87;1984779;71;39548;-75
2022/04/30 12:33:04;;;;;;;16.30;15.10;;;;;;;15.70;100.00;102861.16;1840530;76;86042;-72
2022/04/30 12:38:57;;;;;;;16.73;15.37;;;;;;;16.24;100.00;102847.67;1804464;78;86147;-74
2022/04/30 12:44:41;;;;;;;17.63;16.43;;;;;;;16.03;100.00;102839.74;1883807;74;86553;-73
2022/04/30 12:50:25;;;;;;;16.63;15.37;;;;;;;14.82;100.00;102739.52;1909846;72;85869;-74
2022/04/30 12:56:10;;;;;;;17.23;15.93;;;;;;;15.39;100.00;102829.26;1978163;71;39763;-74
2022/04/30 13:01:55;;;;;;;16.13;15.13;;;;;;;15.98;100.00;102820.09;1825876;77;86354;-73
2022/04/30 13:07:41;;;;;;;16.67;15.50;;;;;;;15.92;100.00;102810.80;1883986;75;86367;-69
2022/04/30 13:13:32;;;;;;;16.40;15.30;;;;;;;16.29;100.00;102802.27;1912105;72;86419;-69
2022/04/30 13:19:19;;;;;;;15.83;14.73;;;;;;;16.33;100.00;102801.16;1867301;76;86106;-74
2022/04/30 13:25:04;;;;;;;15.73;14.60;;;;;;;16.45;100.00;102786.30;1782958;78;86109;-74
2022/04/30 13:30:49;;;;;;;15.47;14.57;;;;;;;16.55;100.00;102779.31;1809913;78;86418;-72
2022/04/30 13:36:36;;;;;;;17.87;16.40;;;;;;;16.66;100.00;102773.17;1858163;76;86435;-68
2022/04/30 13:42:21;;;;;;;16.07;14.87;;;;;;;16.32;100.00;102766.65;1906641;72;86558;-74
2022/04/30 13:48:06;;;;;;;15.47;14.57;;;;;;;16.50;100.00;102758.82;1891960;74;86504;-73
2022/04/30 13:53:50;;;;;;;16.40;15.20;;;;;;;16.56;100.00;102752.92;1888799;74;85995;-69
2022/04/30 13:59:34;;;;;;;18.50;17.33;;;;;;;16.92;100.00;102751.00;1862394;76;85330;-74
2022/04/30 14:05:19;;;;;;;15.83;14.83;;;;;;;17.22;100.00;102731.86;1815990;78;86909;-73
2022/04/30 14:11:03;;;;;;;17.30;16.03;;;;;;;16.93;100.00;102732.20;1798430;78;86081;-73
2022/04/30 14:16:47;;;;;;;15.37;14.47;;;;;;;17.20;100.00;102725.12;1807963;78;86687;-70
2022/04/30 14:22:34;;;;;;;17.27;16.03;;;;;;;16.95;100.00;102718.70;1871456;74;85501;-69
2022/04/30 14:28:19;;;;;;;15.93;14.67;;;;;;;17.09;100.00;102714.20;1984617;71;39760;-71
2022/04/30 14:34:04;;;;;;;15.33;14.33;;;;;;;16.90;100.00;102712.53;1796030;78;85992;-74
2022/04/30 14:39:48;;;;;;;13.83;12.73;;;;;;;17.20;100.00;102704.64;1803619;78;85968;-74
2022/04/30 14:45:32;;;;;;;15.63;14.57;;;;;;;17.57;100.00;102695.80;1806798;77;86342;-69
2022/04/30 14:51:18;;;;;;;13.93;12.97;;;;;;;17.21;100.00;102688.05;1972803;71;39545;-70
2022/04/30 14:57:02;;;;;;;16.63;15.43;;;;;;;17.38;100.00;102683.48;1799293;78;86716;-70
2022/04/30 15:02:45;;;;;;;15.07;14.27;;;;;;;17.27;100.00;102676.52;1871100;75;86172;-72
2022/04/30 15:08:29;;;;;;;13.80;13.00;;;;;;;17.56;100.00;102664.59;1809861;77;85445;-72
2022/04/30 15:14:13;;;;;;;12.87;12.17;;;;;;;17.42;100.00;102657.91;1983459;71;39595;-71
2022/04/30 15:19:59;;;;;;;16.13;15.03;;;;;;;17.57;100.00;102652.23;1838148;76;86612;-69
2022/04/30 15:25:43;;;;;;;13.93;13.13;;;;;;;17.55;100.00;102653.07;1884986;73;85254;-70
2022/04/30 15:31:27;;;;;;;12.63;11.83;;;;;;;17.53;100.00;102647.76;1807757;77;86135;-70
2022/04/30 15:37:14;;;;;;;15.80;14.80;;;;;;;17.88;100.00;102641.70;1980621;71;39785;-70
2022/04/30 15:42:59;;;;;;;12.80;11.90;;;;;;;17.53;100.00;102630.06;1831346;76;86215;-73
2022/04/30 15:54:46;;;;;;;14.70;13.67;;;;;;;18.24;100.00;102623.41;1883187;74;86241;-69
2022/04/30 16:00:28;;;;;;;14.60;13.70;;;;;;;17.70;100.00;102617.34;1806122;77;86258;-75
2022/04/30 16:06:12;;;;;;;15.27;14.13;;;;;;;17.48;100.00;102609.00;1980962;71;39657;-69
2022/04/30 16:11:57;;;;;;;15.53;14.53;;;;;;;17.28;95.76;102606.55;1849257;76;85393;-70
2022/04/30 16:17:41;;;;;;;14.77;13.87;;;;;;;17.31;100.00;102600.94;1884369;74;86327;-75
2022/04/30 16:23:30;;;;;;;14.57;13.67;;;;;;;17.44;100.00;102594.70;1858599;75;86391;-74
2022/04/30 16:29:21;;;;;;;13.57;12.77;;;;;;;17.19;96.60;102602.69;1976394;71;39673;-69
2022/04/30 16:35:06;;;;;;;12.37;11.77;;;;;;;17.11;95.48;102579.41;1799915;78;86579;-70
2022/04/30 16:40:51;;;;;;;13.10;12.23;;;;;;;17.02;88.66;102577.48;1885894;74;86283;-74
2022/04/30 16:46:35;;;;;;;13.37;12.67;;;;;;;17.14;96.52;102566.76;1860046;76;86320;-70
2022/04/30 16:52:23;;;;;;;13.70;12.73;;;;;;;17.12;88.77;102561.41;1931075;73;86549;-70
2022/04/30 16:58:08;;;;;;;13.20;12.40;;;;;;;17.16;90.96;102561.11;1983553;71;39602;-70
2022/04/30 17:03:53;;;;;;;13.10;12.30;;;;;;;17.09;91.74;102556.38;1898866;71;86458;-70
2022/04/30 17:09:38;;;;;;;23.27;21.07;;;;;;;17.14;95.76;102548.50;1888649;75;85938;-72
2022/04/30 17:15:24;;;;;;;13.80;12.90;;;;;;;17.32;98.31;102539.42;1908216;72;86070;-72
2022/04/30 17:21:09;;;;;;;13.67;12.87;;;;;;;17.14;100.00;102529.69;1957387;71;39562;-72
2022/04/30 17:26:58;;;;;;;13.47;12.67;;;;;;;17.05;100.00;102521.59;1839961;76;86056;-69
2022/04/30 17:38:46;;;;;;;21.03;19.40;;;;;;;17.47;100.00;102516.84;1885848;74;86607;-68
2022/04/30 17:44:30;;;;;;;16.97;15.80;;;;;;;17.73;100.00;102523.15;1863772;75;86124;-69
2022/04/30 17:50:15;;;;;;;14.87;13.87;;;;;;;17.74;100.00;102513.03;1973867;71;39613;-70
2022/04/30 17:55:59;;;;;;;13.57;12.77;;;;;;;17.65;100.00;102513.94;1980041;70;86265;-68
2022/04/30 18:01:42;;;;;;;13.20;12.50;;;;;;;17.75;100.00;102516.69;1873986;74;85312;-73
2022/04/30 18:07:27;;;;;;;11.70;11.07;;;;;;;17.27;100.00;102516.42;1909217;73;85135;-71
2022/04/30 18:13:14;;;;;;;11.73;11.13;;;;;;;17.11;100.00;102517.64;1977352;71;39702;-69
2022/04/30 18:18:57;;;;;;;11.77;11.07;;;;;;;16.81;100.00;102517.77;1972349;72;86906;-72
2022/04/30 18:24:42;;;;;;;11.83;11.23;;;;;;;16.65;100.00;102518.93;1870084;74;86545;-68
2022/04/30 18:30:26;;;;;;;12.20;11.40;;;;;;;17.03;100.00;102520.20;1910319;73;86469;-72
2022/04/30 18:36:10;;;;;;;12.93;12.10;;;;;;;17.22;100.00;102513.63;1938427;71;39881;-73
2022/04/30 18:41:55;;;;;;;12.53;11.83;;;;;;;16.78;100.00;102512.71;1841634;76;85609;-72
2022/04/30 18:47:40;;;;;;;13.10;12.20;;;;;;;15.99;100.00;102521.00;1885016;75;86252;-73
2022/04/30 18:53:25;;;;;;;13.07;12.27;;;;;;;15.74;100.00;102521.29;1919741;73;86233;-71
2022/04/30 19:05:11;;;;;;;12.37;11.53;;;;;;;15.44;100.00;102524.02;1981862;71;39671;-72
2022/04/30 19:10:55;;;;;;;12.03;11.33;;;;;;;15.29;100.00;102530.41;1849837;76;85645;-77
2022/04/30 19:16:43;;;;;;;12.10;11.30;;;;;;;15.35;100.00;102532.67;1912877;73;85958;-78
2022/04/30 19:22:28;;;;;;;12.10;11.43;;;;;;;15.00;100.00;102537.05;1808515;77;86283;-68
2022/04/30 19:28:13;;;;;;;12.50;11.80;;;;;;;15.00;100.00;102540.40;1930631;71;39686;-69
2022/04/30 19:33:58;;;;;;;18.60;17.13;;;;;;;15.11;100.00;102539.86;1845694;76;86529;-74
2022/04/30 19:39:34;;;;;;;23.33;21.53;;;;;;;15.18;100.00;102539.06;1778571;78;86566;-72
2022/04/30 19:42:07;;;;;;;18.27;16.75;;;;;;;15.23;100.00;102549.70;1686835;81;938782;-68
2022/04/30 19:44:37;;;;;;;15.00;14.00;;;;;;;15.29;100.00;102548.61;1697651;81;940875;-73
2022/04/30 19:47:07;;;;;;;15.63;14.53;;;;;;;15.37;100.00;102549.47;1686699;81;940930;-74
2022/04/30 19:49:38;;;;;;;14.47;13.60;;;;;;;15.33;100.00;102550.30;1697836;81;940815;-71
2022/04/30 19:52:09;;;;;;;14.33;13.32;;;;;;;15.35;100.00;102546.13;1686751;81;941009;-70
2022/04/30 19:57:54;;;;;;;15.33;14.33;;;;;;;15.33;100.00;102544.70;1849217;76;86193;-72
2022/04/30 20:03:39;;;;;;;15.10;14.00;;;;;;;15.30;100.00;102553.10;1891324;74;86442;-68
2022/04/30 20:09:23;;;;;;;15.20;14.03;;;;;;;15.30;100.00;102555.91;1900601;73;86107;-72
2022/04/30 20:21:12;;;;;;;14.93;14.07;;;;;;;15.06;100.00;102552.47;1927070;71;39860;-83
2022/04/30 20:27:08;;;;;;;16.60;15.33;;;;;;;15.01;100.00;102558.88;1840598;76;86243;-74
2022/04/30 20:38:54;;;;;;;17.17;16.07;;;;;;;14.86;100.00;102546.20;1844145;76;86643;-77
2022/04/30 20:44:39;;;;;;;17.67;16.40;;;;;;;14.85;100.00;102547.31;1865602;76;86451;-74
2022/04/30 20:50:26;;;;;;;17.60;16.60;;;;;;;14.65;100.00;102547.22;1911556;74;85453;-70
2022/04/30 20:59:17;;;;;;;18.80;17.47;;;;;;;14.48;100.00;102552.99;1971025;69;39599;-74
2022/04/30 21:01:48;;;;;;;18.93;17.70;;;;;;;14.43;100.00;102559.95;1917779;73;936856;-73
2022/04/30 21:04:19;;;;;;;19.43;18.10;;;;;;;14.41;100.00;102558.84;1859621;75;940851;-70
2022/04/30 21:06:49;;;;;;;19.27;18.07;;;;;;;14.29;100.00;102562.33;1919319;73;938790;-70
2022/04/30 21:09:20;;;;;;;19.30;18.20;;;;;;;14.35;100.00;102559.02;1858388;73;939804;-71
2022/04/30 21:11:50;;;;;;;20.23;18.73;;;;;;;14.31;100.00;102560.67;1867885;75;938871;-75
2022/04/30 21:14:20;;;;;;;20.30;18.90;;;;;;;14.25;100.00;102563.16;1856968;75;939753;-75
2022/04/30 21:16:51;;;;;;;20.97;19.77;;;;;;;14.27;100.00;102563.72;1826661;76;938944;-76
2022/04/30 21:19:21;;;;;;;20.77;19.37;;;;;;;14.12;100.00;102565.83;1910287;73;940754;-75
2022/04/30 21:21:51;;;;;;;21.77;20.27;;;;;;;14.20;100.00;102564.52;1878836;75;938738;-70
2022/04/30 21:24:22;;;;;;;22.37;20.73;;;;;;;14.09;100.00;102563.03;1838232;76;940885;-71
2022/04/30 21:26:52;;;;;;;21.13;19.63;;;;;;;14.07;100.00;102566.66;1849912;76;939099;-76
2022/04/30 21:29:23;;;;;;;21.52;19.92;;;;;;;14.06;100.00;102563.57;1916055;73;940974;-75
2022/04/30 21:31:54;;;;;;;21.43;20.13;;;;;;;14.02;100.00;102568.56;1844388;74;940944;-76
2022/04/30 21:34:25;;;;;;;21.77;20.33;;;;;;;13.87;100.00;102548.85;1850268;74;941054;-72
2022/04/30 21:36:56;;;;;;;22.93;21.37;;;;;;;14.03;100.00;102561.87;1823323;75;939839;-73
2022/04/30 21:39:30;;;;;;;23.10;21.60;;;;;;;13.91;100.00;102559.23;1902848;73;939835;-74
2022/04/30 21:42:00;;;;;;;23.25;21.62;;;;;;;13.78;100.00;102555.48;1890629;73;940671;-71
2022/04/30 21:44:32;;;;;;;23.83;22.47;;;;;;;13.89;100.00;102557.83;1822286;75;941078;-71
2022/04/30 21:47:05;;;;;;;23.87;22.47;;;;;;;13.88;100.00;102554.73;1894936;73;940122;-71
2022/04/30 21:49:36;;;;;;;24.77;23.17;;;;;;;13.73;100.00;102554.06;1916811;73;940774;-72
2022/04/30 21:52:07;;;;;;;24.40;22.90;;;;;;;13.73;100.00;102545.69;1902212;73;940043;-71
2022/04/30 22:04:06;;;;;;;27.37;25.47;;;;;;;13.62;100.00;102545.28;1891239;74;86191;-74
2022/04/30 22:09:51;;;;;;;26.57;24.57;;;;;;;13.63;100.00;102544.17;1796726;78;86407;-75
2022/04/30 22:15:35;;;;;;;27.87;26.27;;;;;;;13.66;100.00;102545.03;1853639;76;86529;-72
2022/04/30 22:21:19;;;;;;;27.10;25.43;;;;;;;13.71;100.00;102544.25;1910750;73;86408;-74
2022/04/30 22:27:07;;;;;;;28.67;26.77;;;;;;;13.52;100.00;102546.59;1979609;71;39541;-73
2022/04/30 22:32:51;;;;;;;30.73;28.53;;;;;;;13.55;100.00;102548.84;1884357;74;85976;-74
2022/04/30 22:38:34;;;;;;;29.03;27.20;;;;;;;13.51;100.00;102546.30;1806836;77;86328;-74
2022/04/30 22:44:19;;;;;;;30.93;29.00;;;;;;;13.51;100.00;102556.07;1823334;78;86692;-73
2022/04/30 22:50:06;;;;;;;31.80;29.73;;;;;;;13.43;100.00;102556.55;1947093;70;86635;-72
2022/04/30 22:55:50;;;;;;;31.90;29.77;;;;;;;13.31;100.00;102548.30;1895748;74;85989;-71
2022/04/30 23:01:34;;;;;;;32.33;30.10;;;;;;;13.26;100.00;102553.00;1799130;77;86619;-72
2022/04/30 23:07:21;;;;;;;34.03;31.67;;;;;;;13.28;100.00;102548.83;1813593;78;85730;-73
2022/04/30 23:19:11;;;;;;;35.73;33.33;;;;;;;13.00;100.00;102542.91;1932580;71;39499;-71
2022/04/30 23:24:54;;;;;;;37.13;34.63;;;;;;;13.02;100.00;102543.48;1840263;75;86709;-72
2022/04/30 23:30:39;;;;;;;52.43;48.00;;;;;;;13.05;100.00;102547.12;1871758;76;86728;-73
2022/04/30 23:36:25;;;;;;;41.00;38.07;;;;;;;12.94;100.00;102540.30;1933792;73;86354;-72
2022/04/30 23:42:10;;;;;;;40.87;38.17;;;;;;;12.87;100.00;102536.88;1925805;71;39558;-73
2022/04/30 23:47:56;;;;;;;43.33;40.60;;;;;;;12.77;100.00;102539.82;1831541;76;86662;-74
2022/04/30 23:53:42;;;;;;;41.80;38.67;;;;;;;12.82;100.00;102530.67;1872283;75;86216;-74
2022/04/30 23:59:26;;;;;;;44.63;41.40;;;;;;;12.82;100.00;102524.25;1913894;73;86302;-73
